createdAt,value
2019-04-06T00:00:42.608Z,93788.70
2019-04-06T00:03:52.000Z,93775.14
2019-04-06T00:06:59.783Z,93780.07
2019-04-06T00:10:08.641Z,93781.92
2019-04-06T00:13:16.140Z,93773.94
2019-04-06T00:16:23.539Z,93770.77
2019-04-06T00:19:31.893Z,93768.14
2019-04-06T00:22:40.185Z,93768.28
2019-04-06T00:25:47.468Z,93773.47
2019-04-06T00:28:54.949Z,93769.95
2019-04-06T00:32:13.161Z,93771.42
2019-04-06T00:35:20.881Z,93768.81
2019-04-06T00:38:28.357Z,93774.89
2019-04-06T00:41:35.925Z,93781.14
2019-04-06T00:44:43.242Z,93779.31
2019-04-06T00:47:50.648Z,93773.61
2019-04-06T00:50:58.408Z,93777.70
2019-04-06T00:54:05.979Z,93783.27
2019-04-06T00:57:13.391Z,93784.97
2019-04-06T01:00:20.972Z,93783.30
2019-04-06T01:03:28.252Z,93785.92
2019-04-06T01:06:35.974Z,93787.37
2019-04-06T01:09:43.488Z,93786.88
2019-04-06T01:12:50.920Z,93785.89
2019-04-06T01:15:58.867Z,93789.66
2019-04-06T01:19:06.669Z,93789.07
2019-04-06T01:22:14.094Z,93783.86
2019-04-06T01:25:21.972Z,93776.84
2019-04-06T01:28:29.476Z,93780.23
2019-04-06T01:31:37.322Z,93785.92
2019-04-06T01:34:44.746Z,93776.31
2019-04-06T01:37:52.630Z,93768.86
2019-04-06T01:41:00.479Z,93766.77
2019-04-06T01:44:07.763Z,93771.91
2019-04-06T01:47:15.448Z,93769.98
2019-04-06T01:50:23.085Z,93772.02
2019-04-06T01:53:30.643Z,93775.72
2019-04-06T01:56:37.924Z,93768.54
2019-04-06T01:59:45.519Z,93768.39
2019-04-06T02:02:53.363Z,93765.87
2019-04-06T02:06:01.787Z,93769.11
2019-04-06T02:09:09.588Z,93767.53
2019-04-06T02:12:16.984Z,93757.61
2019-04-06T02:15:24.821Z,93759.03
2019-04-06T02:18:32.081Z,93765.22
2019-04-06T02:21:39.459Z,93757.42
2019-04-06T02:24:46.739Z,93756.11
2019-04-06T02:27:54.231Z,93757.61
2019-04-06T02:31:06.543Z,93761.19
2019-04-06T02:34:28.515Z,93764.17
2019-04-06T02:38:00.708Z,93765.17
2019-04-06T02:41:13.524Z,93766.54
2019-04-06T02:44:20.901Z,93762.28
2019-04-06T02:47:28.443Z,93758.15
2019-04-06T02:50:36.465Z,93758.11
2019-04-06T02:53:43.990Z,93757.49
2019-04-06T02:56:51.366Z,93754.95
2019-04-06T02:59:59.151Z,93755.90
2019-04-06T03:03:06.756Z,93758.58
2019-04-06T03:06:14.565Z,93746.48
2019-04-06T03:09:22.234Z,93752.43
2019-04-06T03:12:30.538Z,93750.27
2019-04-06T03:15:39.177Z,93755.06
2019-04-06T03:18:47.705Z,93753.55
2019-04-06T03:21:55.089Z,93743.89
2019-04-06T03:25:03.141Z,93745.46
2019-04-06T03:28:12.891Z,93749.09
2019-04-06T03:31:25.213Z,93745.86
2019-04-06T03:34:29.983Z,93741.92
2019-04-06T03:37:38.577Z,93737.95
2019-04-06T03:40:45.947Z,93736.52
2019-04-06T03:43:53.584Z,93727.48
2019-04-06T03:47:00.786Z,93739.56
2019-04-06T03:50:09.111Z,93741.22
2019-04-06T03:53:16.621Z,93736.09
2019-04-06T03:56:24.351Z,93736.59
2019-04-06T03:59:31.780Z,93741.13
2019-04-06T04:02:39.007Z,93742.81
2019-04-06T04:05:46.186Z,93741.63
2019-04-06T04:08:53.827Z,93738.56
2019-04-06T04:12:01.732Z,93737.37
2019-04-06T04:15:09.293Z,93736.98
2019-04-06T04:18:16.480Z,93740.50
2019-04-06T04:21:24.000Z,93740.15
2019-04-06T04:24:31.768Z,93743.43
2019-04-06T04:27:40.751Z,93741.61
2019-04-06T04:30:48.457Z,93747.59
2019-04-06T04:33:56.041Z,93758.05
2019-04-06T04:37:03.859Z,93754.25
2019-04-06T04:40:11.584Z,93758.23
2019-04-06T04:43:19.156Z,93763.86
2019-04-06T04:46:26.777Z,93763.14
2019-04-06T04:49:34.853Z,93762.39
2019-04-06T04:52:42.158Z,93762.30
2019-04-06T04:55:50.617Z,93771.31
2019-04-06T04:58:58.762Z,93763.45
2019-04-06T05:02:06.688Z,93762.51
2019-04-06T05:05:14.408Z,93763.59
2019-04-06T05:08:21.722Z,93763.22
2019-04-06T05:11:29.609Z,93764.90
2019-04-06T05:14:58.582Z,93766.03
2019-04-06T05:18:05.919Z,93766.25
2019-04-06T05:21:13.588Z,93768.20
2019-04-06T05:24:21.997Z,93775.03
2019-04-06T05:27:29.553Z,93779.20
2019-04-06T05:30:36.908Z,93782.39
2019-04-06T05:33:44.695Z,93781.77
2019-04-06T05:36:52.118Z,93782.45
2019-04-06T05:39:59.600Z,93787.00
2019-04-06T05:43:06.765Z,93792.59
2019-04-06T05:46:14.089Z,93795.44
2019-04-06T05:49:22.207Z,93798.08
2019-04-06T05:52:30.769Z,93797.22
2019-04-06T05:55:38.594Z,93804.48
2019-04-06T05:58:46.817Z,93801.53
2019-04-06T06:01:54.731Z,93809.44
2019-04-06T06:05:02.729Z,93805.16
2019-04-06T06:08:10.327Z,93804.83
2019-04-06T06:11:18.354Z,93808.34
2019-04-06T06:14:26.995Z,93808.12
2019-04-06T06:17:34.951Z,93809.88
2019-04-06T06:20:42.632Z,93805.36
2019-04-06T06:23:50.204Z,93807.55
2019-04-06T06:26:58.105Z,93807.38
2019-04-06T06:30:06.761Z,93810.28
2019-04-06T06:33:14.822Z,93810.15
2019-04-06T06:36:22.331Z,93806.63
2019-04-06T06:39:29.856Z,93803.67
2019-04-06T06:42:37.334Z,93809.84
2019-04-06T06:45:44.802Z,93816.25
2019-04-06T06:48:53.457Z,93808.56
2019-04-06T06:52:01.442Z,93813.50
2019-04-06T06:55:09.248Z,93808.16
2019-04-06T06:58:25.362Z,93814.60
2019-04-06T07:01:27.334Z,93814.00
2019-04-06T07:04:34.680Z,93815.03
2019-04-06T07:07:42.022Z,93814.48
2019-04-06T07:10:49.616Z,93814.48
2019-04-06T07:13:58.276Z,93808.86
2019-04-06T07:17:05.843Z,93812.15
2019-04-06T07:20:13.899Z,93815.03
2019-04-06T07:23:21.300Z,93812.64
2019-04-06T07:26:29.091Z,93810.58
2019-04-06T07:29:36.257Z,93812.69
2019-04-06T07:32:43.887Z,93808.20
2019-04-06T07:35:51.982Z,93809.18
2019-04-06T07:38:59.658Z,93810.95
2019-04-06T07:42:07.074Z,93812.16
2019-04-06T07:45:14.694Z,93812.23
2019-04-06T07:48:22.625Z,93808.41
2019-04-06T07:51:30.067Z,93810.15
2019-04-06T07:54:37.792Z,93801.46
2019-04-06T07:57:45.273Z,93801.27
2019-04-06T08:00:52.781Z,93807.45
2019-04-06T08:04:00.209Z,93797.92
2019-04-06T08:07:07.897Z,93801.28
2019-04-06T08:10:15.933Z,93801.47
2019-04-06T08:13:24.119Z,93793.39
2019-04-06T08:16:32.692Z,93794.45
2019-04-06T08:19:40.407Z,93790.05
2019-04-06T08:22:48.547Z,93791.76
2019-04-06T08:25:55.849Z,93788.61
2019-04-06T08:29:03.596Z,93789.04
2019-04-06T08:32:11.306Z,93789.89
2019-04-06T08:35:25.110Z,93785.03
2019-04-06T08:38:29.353Z,93782.03
2019-04-06T08:41:37.182Z,93788.71
2019-04-06T08:44:45.010Z,93788.06
2019-04-06T08:47:52.767Z,93779.02
2019-04-06T08:51:00.301Z,93778.25
2019-04-06T08:54:07.549Z,93775.41
2019-04-06T08:57:14.768Z,93773.09
2019-04-06T09:00:22.253Z,93774.06
2019-04-06T09:03:29.848Z,93771.01
2019-04-06T09:06:37.033Z,93758.92
2019-04-06T09:09:44.892Z,93765.23
2019-04-06T09:12:52.587Z,93762.97
2019-04-06T09:16:00.121Z,93753.53
2019-04-06T09:19:07.503Z,93757.36
2019-04-06T09:22:15.149Z,93754.94
2019-04-06T09:25:22.535Z,93753.06
2019-04-06T09:28:29.929Z,93754.17
2019-04-06T09:31:37.137Z,93751.37
2019-04-06T09:34:44.862Z,93739.22
2019-04-06T09:37:52.242Z,93735.48
2019-04-06T09:40:59.471Z,93731.09
2019-04-06T09:44:11.180Z,93728.25
2019-04-06T09:47:28.718Z,93719.89
2019-04-06T09:51:11.057Z,93719.44
2019-04-06T09:54:30.131Z,93723.18
2019-04-06T09:57:48.399Z,93714.22
2019-04-06T10:01:14.845Z,93707.69
2019-04-06T10:04:47.557Z,93710.45
2019-04-06T10:08:15.336Z,93703.25
2019-04-06T10:11:31.536Z,93700.17
2019-04-06T10:15:01.503Z,93700.21
2019-04-06T10:18:24.572Z,93701.38
2019-04-06T10:21:51.785Z,93702.75
2019-04-06T10:25:10.977Z,93707.44
2019-04-06T10:28:36.313Z,93701.83
2019-04-06T10:32:08.762Z,93700.78
2019-04-06T10:35:28.923Z,93700.22
2019-04-06T10:39:04.808Z,93683.42
2019-04-06T10:42:28.987Z,93683.61
2019-04-06T10:45:47.028Z,93673.65
2019-04-06T10:49:05.704Z,93680.69
2019-04-06T10:52:23.944Z,93676.48
2019-04-06T10:55:39.773Z,93675.09
2019-04-06T10:59:08.339Z,93676.87
2019-04-06T11:02:33.989Z,93659.69
2019-04-06T11:05:55.591Z,93659.71
2019-04-06T11:09:27.362Z,93650.89
2019-04-06T11:12:53.219Z,93644.94
2019-04-06T11:16:09.497Z,93639.34
2019-04-06T11:19:25.794Z,93636.50
2019-04-06T11:22:51.100Z,93635.34
2019-04-06T11:26:21.157Z,93632.72
2019-04-06T11:29:43.233Z,93627.74
2019-04-06T11:33:09.003Z,93615.33
2019-04-06T11:36:51.409Z,93616.33
2019-04-06T11:40:17.062Z,93619.89
2019-04-06T11:43:43.249Z,93614.80
2019-04-06T11:46:57.688Z,93620.48
2019-04-06T11:50:18.259Z,93615.38
2019-04-06T11:53:51.294Z,93611.56
2019-04-06T11:57:25.224Z,93618.02
2019-04-06T12:00:50.954Z,93607.53
2019-04-06T12:04:17.968Z,93605.62
2019-04-06T12:07:35.638Z,93604.03
2019-04-06T12:10:49.915Z,93611.02
2019-04-06T12:14:15.601Z,93611.67
2019-04-06T12:17:37.161Z,93608.42
2019-04-06T12:21:13.139Z,93612.55
2019-04-06T12:24:43.008Z,93602.59
2019-04-06T12:28:12.625Z,93595.80
2019-04-06T12:31:37.438Z,93597.92
2019-04-06T12:34:53.314Z,93601.00
2019-04-06T12:38:19.024Z,93600.43
2019-04-06T12:41:40.445Z,93612.05
2019-04-06T12:45:06.116Z,93594.68
2019-04-06T12:48:32.054Z,93594.22
2019-04-06T12:51:48.345Z,93592.02
2019-04-06T12:55:18.708Z,93584.91
2019-04-06T12:59:04.125Z,93583.43
2019-04-06T13:02:28.023Z,93582.84
2019-04-06T13:06:03.727Z,93580.61
2019-04-06T13:09:22.238Z,93570.91
2019-04-06T13:12:36.922Z,93569.98
2019-04-06T13:16:02.948Z,93573.82
2019-04-06T13:19:28.728Z,93575.80
2019-04-06T13:22:54.419Z,93563.80
2019-04-06T13:26:20.190Z,93560.50
2019-04-06T13:29:33.854Z,93566.27
2019-04-06T13:32:53.541Z,93561.73
2019-04-06T13:36:20.279Z,93554.97
2019-04-06T13:39:55.891Z,93550.46
2019-04-06T13:43:15.142Z,93537.53
2019-04-06T13:46:33.257Z,93546.65
2019-04-06T13:50:03.125Z,93541.61
2019-04-06T13:53:22.559Z,93537.27
2019-04-06T13:56:55.172Z,93541.27
2019-04-06T14:00:26.739Z,93532.28
2019-04-06T14:04:05.816Z,93526.47
2019-04-06T14:07:26.979Z,93525.80
2019-04-06T14:11:02.244Z,93535.52
2019-04-06T14:14:29.470Z,93533.70
2019-04-06T14:17:56.674Z,93539.16
2019-04-06T14:21:13.838Z,93541.91
2019-04-06T14:24:34.114Z,93537.89
2019-04-06T14:28:16.312Z,93551.08
2019-04-06T14:31:41.686Z,93546.99
2019-04-06T14:35:09.635Z,93545.85
2019-04-06T14:38:39.301Z,93550.64
2019-04-06T14:42:05.013Z,93544.73
2019-04-06T14:45:23.536Z,93539.30
2019-04-06T14:48:38.956Z,93538.55
2019-04-06T14:52:18.659Z,93547.88
2019-04-06T14:55:33.544Z,93553.27
2019-04-06T14:58:59.072Z,93548.08
2019-04-06T15:02:26.439Z,93544.70
2019-04-06T15:05:52.902Z,93539.48
2019-04-06T15:09:09.878Z,93541.45
2019-04-06T15:12:43.282Z,93540.88
2019-04-06T15:16:00.303Z,93538.39
2019-04-06T15:19:26.121Z,93539.55
2019-04-06T15:22:52.203Z,93546.77
2019-04-06T15:26:10.833Z,93549.69
2019-04-06T15:29:56.480Z,93561.50
2019-04-06T15:33:22.817Z,93558.08
2019-04-06T15:36:53.291Z,93563.09
2019-04-06T15:40:19.493Z,93559.09
2019-04-06T15:43:35.328Z,93564.28
2019-04-06T15:47:03.345Z,93563.94
2019-04-06T15:50:34.989Z,93563.76
2019-04-06T15:54:05.546Z,93555.20
2019-04-06T15:57:34.522Z,93556.00
2019-04-06T16:01:02.051Z,93552.75
2019-04-06T16:04:42.149Z,93553.17
2019-04-06T16:08:18.674Z,93556.77
2019-04-06T16:11:44.286Z,93563.41
2019-04-06T16:15:09.002Z,93559.86
2019-04-06T16:18:45.386Z,93557.85
2019-04-06T16:21:59.589Z,93559.00
2019-04-06T16:25:26.281Z,93556.13
2019-04-06T16:28:59.073Z,93553.87
2019-04-06T16:32:16.449Z,93555.25
2019-04-06T16:35:32.184Z,93561.38
2019-04-06T16:38:50.270Z,93557.97
2019-04-06T16:42:09.303Z,93548.99
2019-04-06T16:45:39.399Z,93552.98
2019-04-06T16:48:57.099Z,93552.64
2019-04-06T16:52:27.666Z,93555.50
2019-04-06T16:55:46.678Z,93556.09
2019-04-06T16:59:11.060Z,93555.52
2019-04-06T17:02:30.758Z,93552.48
2019-04-06T17:05:51.598Z,93557.62
2019-04-06T17:09:22.062Z,93554.77
2019-04-06T17:12:46.598Z,93554.38
2019-04-06T17:16:11.261Z,93544.11
2019-04-06T17:19:38.499Z,93544.68
2019-04-06T17:22:54.990Z,93546.17
2019-04-06T17:26:27.357Z,93548.25
2019-04-06T17:29:55.324Z,93551.84
2019-04-06T17:33:28.573Z,93544.92
2019-04-06T17:36:49.333Z,93551.32
2019-04-06T17:40:15.615Z,93554.92
2019-04-06T17:43:41.576Z,93564.02
2019-04-06T17:46:57.269Z,93559.33
2019-04-06T17:50:33.724Z,93562.88
2019-04-06T17:53:50.258Z,93564.38
2019-04-06T17:57:11.653Z,93567.91
2019-04-06T18:00:38.483Z,93561.42
2019-04-06T18:04:04.535Z,93562.06
2019-04-06T18:07:32.302Z,93563.92
2019-04-06T18:11:09.107Z,93569.28
2019-04-06T18:14:18.501Z,93568.52
2019-04-06T18:17:26.629Z,93573.17
2019-04-06T18:20:34.938Z,93568.81
2019-04-06T18:23:42.749Z,93573.86
2019-04-06T18:26:50.723Z,93582.48
2019-04-06T18:29:59.995Z,93591.61
2019-04-06T18:33:10.861Z,93590.97
2019-04-06T18:36:20.679Z,93587.45
2019-04-06T18:39:28.999Z,93597.18
2019-04-06T18:42:37.382Z,93603.95
2019-04-06T18:45:44.924Z,93603.81
2019-04-06T18:48:52.901Z,93609.25
2019-04-06T18:52:00.968Z,93604.08
2019-04-06T18:55:08.764Z,93605.10
2019-04-06T18:58:16.552Z,93611.50
2019-04-06T19:01:24.293Z,93612.53
2019-04-06T19:04:32.894Z,93613.95
2019-04-06T19:07:40.798Z,93616.38
2019-04-06T19:10:48.798Z,93621.59
2019-04-06T19:13:56.629Z,93618.92
2019-04-06T19:17:04.566Z,93613.77
2019-04-06T19:20:12.910Z,93608.84
2019-04-06T19:23:20.593Z,93613.76
2019-04-06T19:26:28.805Z,93616.52
2019-04-06T19:29:36.650Z,93605.50
2019-04-06T19:32:44.205Z,93614.61
2019-04-06T19:35:52.876Z,93608.47
2019-04-06T19:39:00.631Z,93607.05
2019-04-06T19:42:09.264Z,93600.33
2019-04-06T19:45:17.035Z,93598.30
2019-04-06T19:48:24.793Z,93588.15
2019-04-06T19:51:33.148Z,93585.81
2019-04-06T19:54:41.406Z,93578.45
2019-04-06T19:57:48.852Z,93576.92
2019-04-06T20:00:56.369Z,93578.88
2019-04-06T20:04:04.636Z,93568.83
2019-04-06T20:07:12.911Z,93563.00
2019-04-06T20:10:20.282Z,93561.16
2019-04-06T20:13:29.483Z,93568.67
2019-04-06T20:16:38.459Z,93571.53
2019-04-06T20:19:46.149Z,93571.11
2019-04-06T20:22:53.912Z,93566.03
2019-04-06T20:26:02.405Z,93564.20
2019-04-06T20:29:10.460Z,93568.39
2019-04-06T20:32:18.722Z,93561.69
2019-04-06T20:35:26.737Z,93563.58
2019-04-06T20:38:35.701Z,93565.27
2019-04-06T20:41:43.843Z,93569.32
2019-04-06T20:44:52.706Z,93566.66
2019-04-06T20:48:00.202Z,93569.83
2019-04-06T20:51:08.034Z,93576.02
2019-04-06T20:57:25.667Z,93568.52
2019-04-06T21:00:34.626Z,93570.45
2019-04-06T21:03:42.807Z,93570.37
2019-04-06T21:06:50.609Z,93565.14
2019-04-06T21:09:58.472Z,93561.92
2019-04-06T21:13:06.608Z,93559.89
2019-04-06T21:16:15.172Z,93557.95
2019-04-06T21:19:22.974Z,93560.13
2019-04-06T21:22:30.680Z,93551.78
2019-04-06T21:25:38.782Z,93549.44
2019-04-06T21:28:46.566Z,93546.52
2019-04-06T21:31:54.459Z,93547.34
2019-04-06T21:35:05.465Z,93547.35
2019-04-06T21:38:13.452Z,93547.81
2019-04-06T21:41:20.819Z,93552.84
2019-04-06T21:44:28.173Z,93551.41
2019-04-06T21:47:36.145Z,93553.63
2019-04-06T21:50:43.648Z,93546.89
2019-04-06T21:53:51.719Z,93543.77
2019-04-06T21:56:59.548Z,93544.99
2019-04-06T22:00:08.879Z,93559.52
2019-04-06T22:03:16.683Z,93557.80
2019-04-06T22:06:25.766Z,93555.31
2019-04-06T22:09:33.861Z,93555.80
2019-04-06T22:12:41.648Z,93550.67
2019-04-06T22:15:48.958Z,93556.48
2019-04-06T22:18:56.498Z,93555.91
2019-04-06T22:22:04.007Z,93555.63
2019-04-06T22:25:12.156Z,93557.36
2019-04-06T22:28:20.044Z,93549.64
2019-04-06T22:31:27.810Z,93554.92
2019-04-06T22:34:39.880Z,93556.92
2019-04-06T22:37:44.983Z,93552.78
2019-04-06T22:40:52.964Z,93559.16
2019-04-06T22:44:00.757Z,93554.36
2019-04-06T22:47:09.057Z,93553.52
2019-04-06T22:50:16.579Z,93550.55
2019-04-06T22:53:23.947Z,93546.89
2019-04-06T22:56:31.500Z,93558.89
2019-04-06T22:59:39.204Z,93544.83
2019-04-06T23:02:57.457Z,93546.33
2019-04-06T23:06:08.519Z,93553.84
2019-04-06T23:09:16.570Z,93552.00
2019-04-06T23:12:24.598Z,93538.13
2019-04-06T23:15:32.647Z,93543.18
2019-04-06T23:18:40.036Z,93541.45
2019-04-06T23:21:47.572Z,93541.70
2019-04-06T23:24:54.986Z,93543.28
2019-04-06T23:28:02.384Z,93549.77
2019-04-06T23:31:09.849Z,93547.06
2019-04-06T23:34:18.020Z,93542.39
2019-04-06T23:37:25.734Z,93544.45
2019-04-06T23:40:33.760Z,93543.45
2019-04-06T23:43:41.538Z,93549.38
2019-04-06T23:46:48.809Z,93537.77
2019-04-06T23:49:56.278Z,93535.02
2019-04-06T23:53:04.239Z,93530.10
2019-04-06T23:56:12.052Z,93532.38
2019-04-06T23:59:19.994Z,93532.95
